sensor_id;sensor_type;location;lat;lon;timestamp;P1;durP1;ratioP1;P2;durP2;ratioP2
40489;SDS011;26196;52.302;10.572;2023-06-24T00:03:03;7.03;;;4.10;;
40489;SDS011;26196;52.302;10.572;2023-06-24T00:07:07;3.72;;;3.38;;
40489;SDS011;26196;52.302;10.572;2023-06-24T00:11:07;4.22;;;3.15;;
40489;SDS011;26196;52.302;10.572;2023-06-24T00:15:08;7.93;;;3.70;;
40489;SDS011;26196;52.302;10.572;2023-06-24T00:19:11;5.47;;;4.15;;
40489;SDS011;26196;52.302;10.572;2023-06-24T00:23:12;4.37;;;3.97;;
40489;SDS011;26196;52.302;10.572;2023-06-24T00:27:17;6.82;;;3.60;;
40489;SDS011;26196;52.302;10.572;2023-06-24T00:31:17;4.28;;;3.08;;
40489;SDS011;26196;52.302;10.572;2023-06-24T00:35:18;4.70;;;3.38;;
40489;SDS011;26196;52.302;10.572;2023-06-24T00:39:19;3.77;;;3.40;;
40489;SDS011;26196;52.302;10.572;2023-06-24T00:43:19;8.03;;;4.13;;
40489;SDS011;26196;52.302;10.572;2023-06-24T00:47:19;4.20;;;3.00;;
40489;SDS011;26196;52.302;10.572;2023-06-24T00:51:20;5.50;;;3.88;;
40489;SDS011;26196;52.302;10.572;2023-06-24T00:55:34;7.80;;;3.50;;
40489;SDS011;26196;52.302;10.572;2023-06-24T00:59:34;6.30;;;3.50;;
40489;SDS011;26196;52.302;10.572;2023-06-24T01:03:36;3.80;;;3.45;;
40489;SDS011;26196;52.302;10.572;2023-06-24T01:07:37;3.20;;;2.88;;
40489;SDS011;26196;52.302;10.572;2023-06-24T01:11:38;3.40;;;2.90;;
40489;SDS011;26196;52.302;10.572;2023-06-24T01:15:39;7.75;;;3.63;;
40489;SDS011;26196;52.302;10.572;2023-06-24T01:24:22;3.28;;;2.97;;
40489;SDS011;26196;52.302;10.572;2023-06-24T01:33:02;5.05;;;3.70;;
40489;SDS011;26196;52.302;10.572;2023-06-24T01:37:19;4.72;;;3.92;;
40489;SDS011;26196;52.302;10.572;2023-06-24T01:41:22;4.80;;;3.47;;
40489;SDS011;26196;52.302;10.572;2023-06-24T01:45:26;4.28;;;3.22;;
40489;SDS011;26196;52.302;10.572;2023-06-24T01:49:28;3.88;;;3.47;;
40489;SDS011;26196;52.302;10.572;2023-06-24T01:53:35;6.03;;;3.38;;
40489;SDS011;26196;52.302;10.572;2023-06-24T01:57:42;4.20;;;3.22;;
40489;SDS011;26196;52.302;10.572;2023-06-24T02:01:45;4.82;;;4.00;;
40489;SDS011;26196;52.302;10.572;2023-06-24T02:05:46;4.18;;;3.10;;
40489;SDS011;26196;52.302;10.572;2023-06-24T02:09:49;5.22;;;3.25;;
40489;SDS011;26196;52.302;10.572;2023-06-24T02:13:51;3.47;;;3.00;;
40489;SDS011;26196;52.302;10.572;2023-06-24T02:17:53;5.95;;;3.65;;
40489;SDS011;26196;52.302;10.572;2023-06-24T02:21:57;3.80;;;3.33;;
40489;SDS011;26196;52.302;10.572;2023-06-24T02:25:59;5.40;;;3.88;;
40489;SDS011;26196;52.302;10.572;2023-06-24T02:30:02;4.60;;;3.92;;
40489;SDS011;26196;52.302;10.572;2023-06-24T02:34:04;4.72;;;3.47;;
40489;SDS011;26196;52.302;10.572;2023-06-24T02:38:05;4.93;;;3.55;;
40489;SDS011;26196;52.302;10.572;2023-06-24T02:42:05;4.45;;;3.72;;
40489;SDS011;26196;52.302;10.572;2023-06-24T02:46:06;6.03;;;3.47;;
40489;SDS011;26196;52.302;10.572;2023-06-24T02:50:09;5.35;;;3.42;;
40489;SDS011;26196;52.302;10.572;2023-06-24T02:54:10;5.05;;;3.35;;
40489;SDS011;26196;52.302;10.572;2023-06-24T02:58:12;6.32;;;3.50;;
40489;SDS011;26196;52.302;10.572;2023-06-24T03:02:13;3.50;;;3.20;;
40489;SDS011;26196;52.302;10.572;2023-06-24T03:06:17;6.55;;;3.50;;
40489;SDS011;26196;52.302;10.572;2023-06-24T03:10:18;4.70;;;3.25;;
40489;SDS011;26196;52.302;10.572;2023-06-24T03:14:19;3.53;;;3.10;;
40489;SDS011;26196;52.302;10.572;2023-06-24T03:18:19;4.82;;;3.13;;
40489;SDS011;26196;52.302;10.572;2023-06-24T03:22:21;3.78;;;3.22;;
40489;SDS011;26196;52.302;10.572;2023-06-24T03:26:22;3.13;;;2.83;;
40489;SDS011;26196;52.302;10.572;2023-06-24T03:30:22;3.33;;;3.03;;
40489;SDS011;26196;52.302;10.572;2023-06-24T03:34:23;3.22;;;2.60;;
40489;SDS011;26196;52.302;10.572;2023-06-24T03:38:23;4.38;;;3.10;;
40489;SDS011;26196;52.302;10.572;2023-06-24T03:42:23;3.22;;;2.92;;
40489;SDS011;26196;52.302;10.572;2023-06-24T03:46:24;3.40;;;2.95;;
40489;SDS011;26196;52.302;10.572;2023-06-24T03:50:25;4.35;;;3.95;;
40489;SDS011;26196;52.302;10.572;2023-06-24T03:54:25;3.22;;;2.88;;
40489;SDS011;26196;52.302;10.572;2023-06-24T03:58:26;3.03;;;2.72;;
40489;SDS011;26196;52.302;10.572;2023-06-24T04:02:26;2.75;;;2.53;;
40489;SDS011;26196;52.302;10.572;2023-06-24T04:06:29;3.10;;;2.80;;
40489;SDS011;26196;52.302;10.572;2023-06-24T04:10:29;4.00;;;2.90;;
40489;SDS011;26196;52.302;10.572;2023-06-24T04:14:29;2.33;;;2.13;;
40489;SDS011;26196;52.302;10.572;2023-06-24T04:18:30;2.30;;;1.95;;
40489;SDS011;26196;52.302;10.572;2023-06-24T04:22:30;3.70;;;2.17;;
40489;SDS011;26196;52.302;10.572;2023-06-24T04:26:31;3.13;;;2.33;;
40489;SDS011;26196;52.302;10.572;2023-06-24T04:30:31;2.60;;;2.40;;
40489;SDS011;26196;52.302;10.572;2023-06-24T04:34:41;5.05;;;2.10;;
40489;SDS011;26196;52.302;10.572;2023-06-24T04:38:42;3.50;;;2.63;;
40489;SDS011;26196;52.302;10.572;2023-06-24T04:42:42;2.77;;;2.30;;
40489;SDS011;26196;52.302;10.572;2023-06-24T04:46:43;2.63;;;2.42;;
40489;SDS011;26196;52.302;10.572;2023-06-24T04:50:43;3.00;;;2.47;;
40489;SDS011;26196;52.302;10.572;2023-06-24T04:54:43;3.28;;;2.88;;
40489;SDS011;26196;52.302;10.572;2023-06-24T04:58:44;3.63;;;2.50;;
40489;SDS011;26196;52.302;10.572;2023-06-24T05:02:44;5.10;;;2.47;;
40489;SDS011;26196;52.302;10.572;2023-06-24T05:06:45;3.92;;;2.75;;
40489;SDS011;26196;52.302;10.572;2023-06-24T05:10:45;4.50;;;3.10;;
40489;SDS011;26196;52.302;10.572;2023-06-24T05:14:49;4.10;;;2.70;;
40489;SDS011;26196;52.302;10.572;2023-06-24T05:18:51;9.33;;;3.30;;
40489;SDS011;26196;52.302;10.572;2023-06-24T05:22:51;6.00;;;3.50;;
40489;SDS011;26196;52.302;10.572;2023-06-24T05:26:51;3.70;;;2.92;;
40489;SDS011;26196;52.302;10.572;2023-06-24T05:30:52;4.07;;;2.90;;
40489;SDS011;26196;52.302;10.572;2023-06-24T05:34:52;4.60;;;3.60;;
40489;SDS011;26196;52.302;10.572;2023-06-24T05:38:53;8.52;;;3.47;;
40489;SDS011;26196;52.302;10.572;2023-06-24T05:42:53;6.32;;;3.30;;
40489;SDS011;26196;52.302;10.572;2023-06-24T05:46:53;4.03;;;2.97;;
40489;SDS011;26196;52.302;10.572;2023-06-24T05:50:54;11.23;;;4.23;;
40489;SDS011;26196;52.302;10.572;2023-06-24T05:54:54;7.43;;;4.03;;
40489;SDS011;26196;52.302;10.572;2023-06-24T05:58:54;9.63;;;3.97;;
40489;SDS011;26196;52.302;10.572;2023-06-24T06:02:55;14.02;;;4.82;;
40489;SDS011;26196;52.302;10.572;2023-06-24T06:06:55;9.13;;;4.95;;
40489;SDS011;26196;52.302;10.572;2023-06-24T06:10:56;8.57;;;4.28;;
40489;SDS011;26196;52.302;10.572;2023-06-24T06:14:56;9.25;;;5.00;;
40489;SDS011;26196;52.302;10.572;2023-06-24T06:18:56;8.27;;;3.70;;
40489;SDS011;26196;52.302;10.572;2023-06-24T06:22:58;12.03;;;5.00;;
40489;SDS011;26196;52.302;10.572;2023-06-24T06:26:59;10.23;;;5.68;;
40489;SDS011;26196;52.302;10.572;2023-06-24T06:31:00;7.85;;;4.93;;
40489;SDS011;26196;52.302;10.572;2023-06-24T06:35:00;5.90;;;4.90;;
40489;SDS011;26196;52.302;10.572;2023-06-24T06:39:00;6.78;;;5.00;;
40489;SDS011;26196;52.302;10.572;2023-06-24T06:43:01;8.60;;;4.72;;
40489;SDS011;26196;52.302;10.572;2023-06-24T06:47:01;8.05;;;4.65;;
40489;SDS011;26196;52.302;10.572;2023-06-24T06:51:02;7.80;;;4.90;;
40489;SDS011;26196;52.302;10.572;2023-06-24T06:55:02;10.13;;;5.53;;
40489;SDS011;26196;52.302;10.572;2023-06-24T06:59:02;13.55;;;6.63;;
40489;SDS011;26196;52.302;10.572;2023-06-24T07:03:04;11.68;;;6.13;;
40489;SDS011;26196;52.302;10.572;2023-06-24T07:07:04;10.40;;;6.03;;
40489;SDS011;26196;52.302;10.572;2023-06-24T07:11:04;12.32;;;5.20;;
40489;SDS011;26196;52.302;10.572;2023-06-24T07:15:05;10.70;;;5.35;;
40489;SDS011;26196;52.302;10.572;2023-06-24T07:19:06;9.55;;;5.00;;
40489;SDS011;26196;52.302;10.572;2023-06-24T07:23:06;10.75;;;6.63;;
40489;SDS011;26196;52.302;10.572;2023-06-24T07:27:06;15.38;;;4.97;;
40489;SDS011;26196;52.302;10.572;2023-06-24T07:31:07;13.57;;;6.32;;
40489;SDS011;26196;52.302;10.572;2023-06-24T07:35:07;10.40;;;6.43;;
40489;SDS011;26196;52.302;10.572;2023-06-24T07:39:08;10.98;;;6.93;;
40489;SDS011;26196;52.302;10.572;2023-06-24T07:43:08;13.45;;;6.65;;
40489;SDS011;26196;52.302;10.572;2023-06-24T07:47:09;11.95;;;6.35;;
40489;SDS011;26196;52.302;10.572;2023-06-24T07:51:09;10.82;;;6.82;;
40489;SDS011;26196;52.302;10.572;2023-06-24T07:55:10;9.63;;;6.10;;
40489;SDS011;26196;52.302;10.572;2023-06-24T07:59:11;10.88;;;6.55;;
40489;SDS011;26196;52.302;10.572;2023-06-24T08:03:12;10.20;;;7.00;;
40489;SDS011;26196;52.302;10.572;2023-06-24T08:07:12;8.48;;;5.90;;
40489;SDS011;26196;52.302;10.572;2023-06-24T08:11:13;8.93;;;5.70;;
40489;SDS011;26196;52.302;10.572;2023-06-24T08:15:13;7.75;;;6.25;;
40489;SDS011;26196;52.302;10.572;2023-06-24T08:19:14;11.98;;;5.68;;
40489;SDS011;26196;52.302;10.572;2023-06-24T08:23:14;11.33;;;5.73;;
40489;SDS011;26196;52.302;10.572;2023-06-24T08:27:14;8.37;;;5.03;;
40489;SDS011;26196;52.302;10.572;2023-06-24T08:31:14;7.37;;;5.30;;
40489;SDS011;26196;52.302;10.572;2023-06-24T08:35:15;9.75;;;5.25;;
40489;SDS011;26196;52.302;10.572;2023-06-24T08:39:15;11.40;;;5.45;;
40489;SDS011;26196;52.302;10.572;2023-06-24T08:43:16;7.20;;;4.53;;
40489;SDS011;26196;52.302;10.572;2023-06-24T08:47:17;8.70;;;5.38;;
40489;SDS011;26196;52.302;10.572;2023-06-24T08:51:18;10.50;;;5.00;;
40489;SDS011;26196;52.302;10.572;2023-06-24T08:55:23;15.35;;;5.40;;
40489;SDS011;26196;52.302;10.572;2023-06-24T08:59:28;37.55;;;11.07;;
40489;SDS011;26196;52.302;10.572;2023-06-24T09:03:29;28.88;;;8.30;;
40489;SDS011;26196;52.302;10.572;2023-06-24T09:07:32;18.23;;;5.68;;
40489;SDS011;26196;52.302;10.572;2023-06-24T09:11:33;9.63;;;5.03;;
40489;SDS011;26196;52.302;10.572;2023-06-24T09:15:34;11.27;;;4.63;;
40489;SDS011;26196;52.302;10.572;2023-06-24T09:19:36;9.20;;;4.93;;
40489;SDS011;26196;52.302;10.572;2023-06-24T09:23:39;9.25;;;4.70;;
40489;SDS011;26196;52.302;10.572;2023-06-24T09:27:40;8.70;;;4.53;;
40489;SDS011;26196;52.302;10.572;2023-06-24T09:31:47;11.35;;;4.72;;
40489;SDS011;26196;52.302;10.572;2023-06-24T09:35:48;8.98;;;4.82;;
40489;SDS011;26196;52.302;10.572;2023-06-24T09:39:49;13.50;;;4.70;;
40489;SDS011;26196;52.302;10.572;2023-06-24T09:43:49;9.82;;;4.57;;
40489;SDS011;26196;52.302;10.572;2023-06-24T09:47:50;12.30;;;4.88;;
40489;SDS011;26196;52.302;10.572;2023-06-24T09:51:54;8.02;;;4.43;;
40489;SDS011;26196;52.302;10.572;2023-06-24T09:55:57;6.10;;;3.97;;
40489;SDS011;26196;52.302;10.572;2023-06-24T10:00:00;4.70;;;3.65;;
40489;SDS011;26196;52.302;10.572;2023-06-24T10:04:01;5.18;;;3.92;;
40489;SDS011;26196;52.302;10.572;2023-06-24T10:08:05;8.35;;;4.18;;
40489;SDS011;26196;52.302;10.572;2023-06-24T10:12:05;5.53;;;4.10;;
40489;SDS011;26196;52.302;10.572;2023-06-24T10:16:06;5.70;;;3.53;;
40489;SDS011;26196;52.302;10.572;2023-06-24T10:20:07;5.50;;;3.40;;
40489;SDS011;26196;52.302;10.572;2023-06-24T10:24:07;12.25;;;4.20;;
40489;SDS011;26196;52.302;10.572;2023-06-24T10:28:10;9.07;;;3.47;;
40489;SDS011;26196;52.302;10.572;2023-06-24T10:32:11;6.20;;;3.63;;
40489;SDS011;26196;52.302;10.572;2023-06-24T10:36:31;7.00;;;3.78;;
40489;SDS011;26196;52.302;10.572;2023-06-24T10:40:35;9.00;;;4.30;;
40489;SDS011;26196;52.302;10.572;2023-06-24T10:44:48;7.07;;;3.40;;
40489;SDS011;26196;52.302;10.572;2023-06-24T10:48:49;3.60;;;3.17;;
40489;SDS011;26196;52.302;10.572;2023-06-24T10:52:51;3.85;;;2.88;;
40489;SDS011;26196;52.302;10.572;2023-06-24T11:01:05;3.50;;;3.17;;
40489;SDS011;26196;52.302;10.572;2023-06-24T11:05:07;4.03;;;3.40;;
40489;SDS011;26196;52.302;10.572;2023-06-24T11:09:08;5.22;;;3.38;;
40489;SDS011;26196;52.302;10.572;2023-06-24T11:13:08;3.83;;;3.00;;
40489;SDS011;26196;52.302;10.572;2023-06-24T11:17:08;8.70;;;4.93;;
40489;SDS011;26196;52.302;10.572;2023-06-24T11:21:09;9.05;;;4.63;;
40489;SDS011;26196;52.302;10.572;2023-06-24T11:25:16;16.87;;;11.03;;
40489;SDS011;26196;52.302;10.572;2023-06-24T11:29:19;14.73;;;9.02;;
40489;SDS011;26196;52.302;10.572;2023-06-24T11:33:28;9.63;;;6.90;;
40489;SDS011;26196;52.302;10.572;2023-06-24T11:37:30;6.03;;;4.60;;
40489;SDS011;26196;52.302;10.572;2023-06-24T11:41:32;9.30;;;4.93;;
40489;SDS011;26196;52.302;10.572;2023-06-24T11:45:32;6.47;;;4.40;;
40489;SDS011;26196;52.302;10.572;2023-06-24T11:49:52;6.85;;;4.57;;
40489;SDS011;26196;52.302;10.572;2023-06-24T11:53:58;6.53;;;4.68;;
40489;SDS011;26196;52.302;10.572;2023-06-24T12:02:01;8.38;;;3.80;;
40489;SDS011;26196;52.302;10.572;2023-06-24T12:06:03;4.63;;;3.50;;
40489;SDS011;26196;52.302;10.572;2023-06-24T12:10:04;5.30;;;3.80;;
40489;SDS011;26196;52.302;10.572;2023-06-24T12:14:05;6.47;;;3.60;;
40489;SDS011;26196;52.302;10.572;2023-06-24T12:18:06;4.20;;;3.80;;
40489;SDS011;26196;52.302;10.572;2023-06-24T12:22:06;4.60;;;3.50;;
40489;SDS011;26196;52.302;10.572;2023-06-24T12:26:06;6.80;;;3.47;;
40489;SDS011;26196;52.302;10.572;2023-06-24T12:30:07;8.77;;;3.10;;
40489;SDS011;26196;52.302;10.572;2023-06-24T12:34:08;4.70;;;3.30;;
40489;SDS011;26196;52.302;10.572;2023-06-24T12:38:08;4.18;;;2.45;;
40489;SDS011;26196;52.302;10.572;2023-06-24T12:42:09;6.38;;;3.47;;
40489;SDS011;26196;52.302;10.572;2023-06-24T12:46:09;6.27;;;3.10;;
40489;SDS011;26196;52.302;10.572;2023-06-24T12:50:09;4.93;;;3.33;;
40489;SDS011;26196;52.302;10.572;2023-06-24T12:59:07;10.07;;;3.77;;
40489;SDS011;26196;52.302;10.572;2023-06-24T13:03:07;3.90;;;3.37;;
40489;SDS011;26196;52.302;10.572;2023-06-24T13:12:04;4.85;;;3.10;;
40489;SDS011;26196;52.302;10.572;2023-06-24T13:16:05;5.22;;;3.25;;
40489;SDS011;26196;52.302;10.572;2023-06-24T13:20:06;4.23;;;2.97;;
40489;SDS011;26196;52.302;10.572;2023-06-24T13:24:07;3.25;;;2.83;;
40489;SDS011;26196;52.302;10.572;2023-06-24T13:28:08;4.15;;;3.05;;
40489;SDS011;26196;52.302;10.572;2023-06-24T13:32:08;7.13;;;3.30;;
40489;SDS011;26196;52.302;10.572;2023-06-24T13:41:06;5.38;;;3.42;;
40489;SDS011;26196;52.302;10.572;2023-06-24T13:45:06;7.73;;;3.23;;
40489;SDS011;26196;52.302;10.572;2023-06-24T13:49:08;3.30;;;2.40;;
40489;SDS011;26196;52.302;10.572;2023-06-24T13:53:08;7.10;;;3.25;;
40489;SDS011;26196;52.302;10.572;2023-06-24T13:57:09;3.65;;;3.20;;
40489;SDS011;26196;52.302;10.572;2023-06-24T14:01:09;3.60;;;2.60;;
40489;SDS011;26196;52.302;10.572;2023-06-24T14:05:09;2.90;;;2.60;;
40489;SDS011;26196;52.302;10.572;2023-06-24T14:09:10;4.18;;;2.83;;
40489;SDS011;26196;52.302;10.572;2023-06-24T14:13:10;4.25;;;2.90;;
40489;SDS011;26196;52.302;10.572;2023-06-24T14:17:11;5.32;;;3.00;;
40489;SDS011;26196;52.302;10.572;2023-06-24T14:21:12;4.93;;;2.83;;
40489;SDS011;26196;52.302;10.572;2023-06-24T14:25:12;3.80;;;2.95;;
40489;SDS011;26196;52.302;10.572;2023-06-24T14:29:13;3.45;;;2.60;;
40489;SDS011;26196;52.302;10.572;2023-06-24T14:33:13;3.30;;;2.70;;
40489;SDS011;26196;52.302;10.572;2023-06-24T14:37:14;3.08;;;2.72;;
40489;SDS011;26196;52.302;10.572;2023-06-24T14:41:15;3.45;;;3.13;;
40489;SDS011;26196;52.302;10.572;2023-06-24T14:45:15;3.43;;;2.80;;
40489;SDS011;26196;52.302;10.572;2023-06-24T14:49:16;5.22;;;3.50;;
40489;SDS011;26196;52.302;10.572;2023-06-24T14:53:17;3.50;;;3.20;;
40489;SDS011;26196;52.302;10.572;2023-06-24T14:57:17;3.83;;;3.03;;
40489;SDS011;26196;52.302;10.572;2023-06-24T15:01:18;6.90;;;3.65;;
40489;SDS011;26196;52.302;10.572;2023-06-24T15:05:18;5.60;;;3.50;;
40489;SDS011;26196;52.302;10.572;2023-06-24T15:09:18;4.32;;;2.60;;
40489;SDS011;26196;52.302;10.572;2023-06-24T15:13:19;4.33;;;3.57;;
40489;SDS011;26196;52.302;10.572;2023-06-24T15:17:19;4.88;;;3.15;;
40489;SDS011;26196;52.302;10.572;2023-06-24T15:21:20;4.03;;;2.97;;
40489;SDS011;26196;52.302;10.572;2023-06-24T15:25:20;3.97;;;3.10;;
40489;SDS011;26196;52.302;10.572;2023-06-24T15:29:20;4.35;;;3.53;;
40489;SDS011;26196;52.302;10.572;2023-06-24T15:33:21;4.67;;;3.67;;
40489;SDS011;26196;52.302;10.572;2023-06-24T15:37:21;4.40;;;3.17;;
40489;SDS011;26196;52.302;10.572;2023-06-24T15:41:23;4.30;;;3.28;;
40489;SDS011;26196;52.302;10.572;2023-06-24T15:45:23;6.20;;;3.47;;
40489;SDS011;26196;52.302;10.572;2023-06-24T15:49:24;3.45;;;2.80;;
40489;SDS011;26196;52.302;10.572;2023-06-24T15:53:25;4.35;;;3.17;;
40489;SDS011;26196;52.302;10.572;2023-06-24T15:57:25;4.53;;;3.60;;
40489;SDS011;26196;52.302;10.572;2023-06-24T16:01:26;5.65;;;2.92;;
40489;SDS011;26196;52.302;10.572;2023-06-24T16:10:22;3.30;;;3.00;;
40489;SDS011;26196;52.302;10.572;2023-06-24T16:14:23;5.20;;;3.93;;
40489;SDS011;26196;52.302;10.572;2023-06-24T16:18:23;4.80;;;3.53;;
40489;SDS011;26196;52.302;10.572;2023-06-24T16:22:24;5.07;;;3.35;;
40489;SDS011;26196;52.302;10.572;2023-06-24T16:26:24;5.53;;;2.95;;
40489;SDS011;26196;52.302;10.572;2023-06-24T16:30:24;4.55;;;4.00;;
40489;SDS011;26196;52.302;10.572;2023-06-24T16:34:25;10.18;;;3.60;;
40489;SDS011;26196;52.302;10.572;2023-06-24T16:38:25;7.82;;;3.53;;
40489;SDS011;26196;52.302;10.572;2023-06-24T16:42:26;4.35;;;3.50;;
40489;SDS011;26196;52.302;10.572;2023-06-24T16:46:26;4.23;;;2.83;;
40489;SDS011;26196;52.302;10.572;2023-06-24T16:50:27;4.57;;;3.20;;
40489;SDS011;26196;52.302;10.572;2023-06-24T16:54:28;6.40;;;4.20;;
40489;SDS011;26196;52.302;10.572;2023-06-24T16:58:28;3.90;;;3.50;;
40489;SDS011;26196;52.302;10.572;2023-06-24T17:02:29;6.63;;;3.80;;
40489;SDS011;26196;52.302;10.572;2023-06-24T17:06:31;4.55;;;3.85;;
40489;SDS011;26196;52.302;10.572;2023-06-24T17:10:32;3.05;;;2.72;;
40489;SDS011;26196;52.302;10.572;2023-06-24T17:14:32;4.97;;;3.63;;
40489;SDS011;26196;52.302;10.572;2023-06-24T17:18:33;6.03;;;3.97;;
40489;SDS011;26196;52.302;10.572;2023-06-24T17:22:33;4.57;;;3.33;;
40489;SDS011;26196;52.302;10.572;2023-06-24T17:26:34;6.00;;;3.50;;
40489;SDS011;26196;52.302;10.572;2023-06-24T17:30:34;6.88;;;4.20;;
40489;SDS011;26196;52.302;10.572;2023-06-24T17:34:34;7.55;;;3.63;;
40489;SDS011;26196;52.302;10.572;2023-06-24T17:38:35;9.00;;;3.80;;
40489;SDS011;26196;52.302;10.572;2023-06-24T17:42:35;5.53;;;3.38;;
40489;SDS011;26196;52.302;10.572;2023-06-24T17:46:36;6.70;;;3.50;;
40489;SDS011;26196;52.302;10.572;2023-06-24T17:50:36;6.83;;;3.23;;
40489;SDS011;26196;52.302;10.572;2023-06-24T17:54:37;5.95;;;4.03;;
40489;SDS011;26196;52.302;10.572;2023-06-24T17:58:37;6.13;;;3.33;;
40489;SDS011;26196;52.302;10.572;2023-06-24T18:02:38;5.60;;;3.75;;
40489;SDS011;26196;52.302;10.572;2023-06-24T18:06:39;11.35;;;4.15;;
40489;SDS011;26196;52.302;10.572;2023-06-24T18:10:39;4.57;;;3.40;;
40489;SDS011;26196;52.302;10.572;2023-06-24T18:14:39;4.70;;;3.70;;
40489;SDS011;26196;52.302;10.572;2023-06-24T18:18:40;6.30;;;3.67;;
40489;SDS011;26196;52.302;10.572;2023-06-24T18:22:40;5.47;;;3.90;;
40489;SDS011;26196;52.302;10.572;2023-06-24T18:26:40;7.70;;;4.00;;
40489;SDS011;26196;52.302;10.572;2023-06-24T18:30:41;5.18;;;3.70;;
40489;SDS011;26196;52.302;10.572;2023-06-24T18:34:41;6.27;;;4.17;;
40489;SDS011;26196;52.302;10.572;2023-06-24T18:38:41;4.57;;;3.47;;
40489;SDS011;26196;52.302;10.572;2023-06-24T18:42:42;5.38;;;3.78;;
40489;SDS011;26196;52.302;10.572;2023-06-24T18:46:42;8.80;;;3.97;;
40489;SDS011;26196;52.302;10.572;2023-06-24T18:50:43;6.80;;;3.90;;
40489;SDS011;26196;52.302;10.572;2023-06-24T18:54:44;8.53;;;3.80;;
40489;SDS011;26196;52.302;10.572;2023-06-24T18:58:46;8.43;;;4.57;;
40489;SDS011;26196;52.302;10.572;2023-06-24T19:02:46;9.10;;;4.67;;
40489;SDS011;26196;52.302;10.572;2023-06-24T19:06:46;10.85;;;4.60;;
40489;SDS011;26196;52.302;10.572;2023-06-24T19:10:47;9.03;;;4.30;;
40489;SDS011;26196;52.302;10.572;2023-06-24T19:14:47;7.67;;;4.23;;
40489;SDS011;26196;52.302;10.572;2023-06-24T19:18:48;6.43;;;4.82;;
40489;SDS011;26196;52.302;10.572;2023-06-24T19:22:49;6.65;;;4.88;;
40489;SDS011;26196;52.302;10.572;2023-06-24T19:26:50;6.57;;;4.72;;
40489;SDS011;26196;52.302;10.572;2023-06-24T19:35:46;10.33;;;4.47;;
40489;SDS011;26196;52.302;10.572;2023-06-24T19:39:47;7.35;;;4.35;;
40489;SDS011;26196;52.302;10.572;2023-06-24T19:43:47;7.23;;;4.70;;
40489;SDS011;26196;52.302;10.572;2023-06-24T19:47:48;11.88;;;4.55;;
40489;SDS011;26196;52.302;10.572;2023-06-24T19:51:48;8.07;;;4.50;;
40489;SDS011;26196;52.302;10.572;2023-06-24T19:55:49;8.93;;;4.47;;
40489;SDS011;26196;52.302;10.572;2023-06-24T19:59:49;8.63;;;7.37;;
40489;SDS011;26196;52.302;10.572;2023-06-24T20:03:49;9.00;;;4.55;;
40489;SDS011;26196;52.302;10.572;2023-06-24T20:07:50;13.63;;;4.22;;
40489;SDS011;26196;52.302;10.572;2023-06-24T20:11:50;7.75;;;4.95;;
40489;SDS011;26196;52.302;10.572;2023-06-24T20:15:51;7.90;;;4.70;;
40489;SDS011;26196;52.302;10.572;2023-06-24T20:19:51;12.68;;;5.95;;
40489;SDS011;26196;52.302;10.572;2023-06-24T20:23:51;8.20;;;4.72;;
40489;SDS011;26196;52.302;10.572;2023-06-24T20:27:53;7.97;;;4.60;;
40489;SDS011;26196;52.302;10.572;2023-06-24T20:31:53;10.07;;;4.33;;
40489;SDS011;26196;52.302;10.572;2023-06-24T20:35:54;8.60;;;4.72;;
40489;SDS011;26196;52.302;10.572;2023-06-24T20:39:54;8.60;;;4.97;;
40489;SDS011;26196;52.302;10.572;2023-06-24T20:43:55;9.50;;;4.60;;
40489;SDS011;26196;52.302;10.572;2023-06-24T20:47:55;9.35;;;4.28;;
40489;SDS011;26196;52.302;10.572;2023-06-24T20:51:55;10.90;;;4.90;;
40489;SDS011;26196;52.302;10.572;2023-06-24T20:55:56;16.30;;;6.65;;
40489;SDS011;26196;52.302;10.572;2023-06-24T20:59:56;10.38;;;4.78;;
40489;SDS011;26196;52.302;10.572;2023-06-24T21:03:57;10.07;;;5.28;;
40489;SDS011;26196;52.302;10.572;2023-06-24T21:07:57;6.90;;;4.75;;
40489;SDS011;26196;52.302;10.572;2023-06-24T21:11:58;8.70;;;4.63;;
40489;SDS011;26196;52.302;10.572;2023-06-24T21:15:58;8.02;;;4.10;;
40489;SDS011;26196;52.302;10.572;2023-06-24T21:19:58;7.00;;;5.00;;
40489;SDS011;26196;52.302;10.572;2023-06-24T21:23:59;5.63;;;4.67;;
40489;SDS011;26196;52.302;10.572;2023-06-24T21:27:59;7.43;;;4.70;;
40489;SDS011;26196;52.302;10.572;2023-06-24T21:32:00;9.75;;;4.70;;
40489;SDS011;26196;52.302;10.572;2023-06-24T21:36:00;6.83;;;5.00;;
40489;SDS011;26196;52.302;10.572;2023-06-24T21:40:00;10.57;;;5.15;;
40489;SDS011;26196;52.302;10.572;2023-06-24T21:44:01;9.13;;;4.68;;
40489;SDS011;26196;52.302;10.572;2023-06-24T21:48:03;8.15;;;5.35;;
40489;SDS011;26196;52.302;10.572;2023-06-24T21:52:04;8.48;;;5.28;;
40489;SDS011;26196;52.302;10.572;2023-06-24T21:56:04;6.13;;;5.03;;
40489;SDS011;26196;52.302;10.572;2023-06-24T22:00:06;6.80;;;4.63;;
40489;SDS011;26196;52.302;10.572;2023-06-24T22:04:14;7.72;;;5.32;;
40489;SDS011;26196;52.302;10.572;2023-06-24T22:08:15;5.83;;;4.87;;
40489;SDS011;26196;52.302;10.572;2023-06-24T22:12:17;6.07;;;4.97;;
40489;SDS011;26196;52.302;10.572;2023-06-24T22:16:17;8.13;;;5.03;;
40489;SDS011;26196;52.302;10.572;2023-06-24T22:20:18;7.95;;;4.72;;
40489;SDS011;26196;52.302;10.572;2023-06-24T22:24:18;6.93;;;4.65;;
40489;SDS011;26196;52.302;10.572;2023-06-24T22:28:18;6.67;;;5.23;;
40489;SDS011;26196;52.302;10.572;2023-06-24T22:32:19;8.90;;;4.45;;
40489;SDS011;26196;52.302;10.572;2023-06-24T22:36:19;11.15;;;5.05;;
40489;SDS011;26196;52.302;10.572;2023-06-24T22:40:20;8.10;;;4.57;;
40489;SDS011;26196;52.302;10.572;2023-06-24T22:44:20;10.97;;;5.20;;
40489;SDS011;26196;52.302;10.572;2023-06-24T22:48:20;12.98;;;6.05;;
40489;SDS011;26196;52.302;10.572;2023-06-24T22:52:21;5.68;;;4.90;;
40489;SDS011;26196;52.302;10.572;2023-06-24T22:56:21;6.65;;;4.85;;
40489;SDS011;26196;52.302;10.572;2023-06-24T23:00:22;8.52;;;4.35;;
40489;SDS011;26196;52.302;10.572;2023-06-24T23:04:23;5.25;;;4.30;;
40489;SDS011;26196;52.302;10.572;2023-06-24T23:08:23;7.43;;;4.75;;
40489;SDS011;26196;52.302;10.572;2023-06-24T23:12:24;6.47;;;4.68;;
40489;SDS011;26196;52.302;10.572;2023-06-24T23:16:26;7.57;;;3.92;;
40489;SDS011;26196;52.302;10.572;2023-06-24T23:20:27;7.40;;;4.43;;
40489;SDS011;26196;52.302;10.572;2023-06-24T23:24:27;8.50;;;4.32;;
40489;SDS011;26196;52.302;10.572;2023-06-24T23:28:29;5.63;;;4.45;;
40489;SDS011;26196;52.302;10.572;2023-06-24T23:32:29;4.50;;;3.87;;
40489;SDS011;26196;52.302;10.572;2023-06-24T23:36:32;12.68;;;5.35;;
40489;SDS011;26196;52.302;10.572;2023-06-24T23:40:33;7.97;;;3.85;;
40489;SDS011;26196;52.302;10.572;2023-06-24T23:44:34;8.10;;;4.07;;
40489;SDS011;26196;52.302;10.572;2023-06-24T23:48:35;11.15;;;5.47;;
40489;SDS011;26196;52.302;10.572;2023-06-24T23:52:35;4.77;;;3.87;;
40489;SDS011;26196;52.302;10.572;2023-06-24T23:56:35;7.22;;;4.55;;
